Dudelange, Luxembourg
Current Conditions -  °F | °C
As of 2:20 PM on Thursday 27 Nov 2014 (Local Time) from ELLX Reporting Station
Light Rain Light Rain  
Wind Chill: 37°   Ceiling: 300
Heat Index: 43°   Visibility: 1.7mi
Dew Point: 43°   Wind: 9mph
Humidity: 100%   Direction: 90°E
Pressure: 29.71"   Gusts: NA
Location:  49.48°N, 6.08°E
Report Text: ELLX 271320Z 09008KT 070V130 2800 BR -RA SCT001 BKN003 06/06 Q1006 NOSIG
Loading
Personal Weather Stations






























Interactive Weather Map New forecast layout! Learn more

10-Day Weather Forecast

Advertisements
Track Severe Weather on mobile